Blakeslee, Ohio
Current Conditions -  °F | °C
As of 8:15 AM on Wednesday 22 Oct 2014 (Local Time) from KANQ Reporting Station
NA  
Wind Chill: 36°   Ceiling: NA
Heat Index: 36°   Visibility: NA
Dew Point: 21°   Wind: 0mph
Humidity: 56%   Direction: NA
Pressure: 30.31"   Gusts: NA
Location:  41.52°N, 84.73°W
Report Text: KANQ 221215Z AUTO 00000KT 02/M06 A3031 RMK
Loading
Personal Weather Stations






























Interactive Weather Map
Tropical Storm Tracking
New forecast layout! Learn more

10-Day Weather Forecast

Advertisements
Track Severe Weather on mobile